createdAt,value
2023-07-17T00:02:16.369Z,10.80
2023-07-17T00:04:44.500Z,9.80
2023-07-17T00:07:13.154Z,11.90
2023-07-17T00:09:41.265Z,11.50
2023-07-17T00:12:09.574Z,11.30
2023-07-17T00:14:37.670Z,11.60
2023-07-17T00:17:05.933Z,10.70
2023-07-17T00:19:34.144Z,10.70
2023-07-17T00:22:02.235Z,11.10
2023-07-17T00:24:30.411Z,11.10
2023-07-17T00:26:58.688Z,12.30
2023-07-17T00:29:31.654Z,11.30
2023-07-17T00:31:59.774Z,13.30
2023-07-17T00:34:28.033Z,13.40
2023-07-17T00:36:56.376Z,13.40
2023-07-17T00:39:25.610Z,12.90
2023-07-17T00:41:53.770Z,13.40
2023-07-17T00:44:21.955Z,17.10
2023-07-17T00:46:51.432Z,12.80
2023-07-17T00:49:21.097Z,13.50
2023-07-17T00:51:49.726Z,12.30
2023-07-17T00:56:48.446Z,13.00
2023-07-17T00:59:17.943Z,12.70
2023-07-17T01:01:46.578Z,15.30
2023-07-17T01:06:44.002Z,16.20
2023-07-17T01:09:13.871Z,13.90
2023-07-17T01:11:41.995Z,15.70
2023-07-17T01:14:19.812Z,13.70
2023-07-17T01:16:50.081Z,13.90
2023-07-17T01:19:19.229Z,14.70
2023-07-17T01:21:54.550Z,11.70
2023-07-17T01:24:22.731Z,12.30
2023-07-17T01:26:52.775Z,14.80
2023-07-17T01:29:21.157Z,16.30
2023-07-17T01:31:49.376Z,16.70
2023-07-17T01:34:17.520Z,17.50
2023-07-17T01:36:45.683Z,17.10
2023-07-17T01:39:14.037Z,16.70
2023-07-17T01:41:43.417Z,15.80
2023-07-17T01:44:11.938Z,15.70
2023-07-17T01:46:40.077Z,15.30
2023-07-17T01:49:09.096Z,15.70
2023-07-17T01:51:38.137Z,15.00
2023-07-17T01:54:07.343Z,14.50
2023-07-17T01:56:35.559Z,17.40
2023-07-17T01:59:03.650Z,17.80
2023-07-17T02:01:34.243Z,20.80
2023-07-17T02:04:03.048Z,18.70
2023-07-17T02:06:31.583Z,17.70
2023-07-17T02:08:59.726Z,16.20
2023-07-17T02:11:30.571Z,18.70
2023-07-17T02:13:58.812Z,14.70
2023-07-17T02:16:27.067Z,20.80
2023-07-17T02:18:55.294Z,14.80
2023-07-17T02:21:23.523Z,15.50
2023-07-17T02:23:51.673Z,15.60
2023-07-17T02:26:20.008Z,18.00
2023-07-17T02:28:48.299Z,15.90
2023-07-17T02:31:16.828Z,18.60
2023-07-17T02:33:45.659Z,13.90
2023-07-17T02:36:13.880Z,13.10
2023-07-17T02:38:45.385Z,15.90
2023-07-17T02:41:17.612Z,17.20
2023-07-17T02:43:46.038Z,17.20
2023-07-17T02:46:14.343Z,18.40
2023-07-17T02:48:42.659Z,18.20
2023-07-17T02:51:10.990Z,17.90
2023-07-17T02:53:39.291Z,16.80
2023-07-17T02:56:09.400Z,19.80
2023-07-17T02:58:44.200Z,19.70
2023-07-17T03:01:12.377Z,18.60
2023-07-17T03:03:41.082Z,18.30
2023-07-17T03:06:09.267Z,18.30
2023-07-17T03:08:37.321Z,17.10
2023-07-17T03:11:05.605Z,17.10
2023-07-17T03:13:35.216Z,18.00
2023-07-17T03:18:33.071Z,19.40
2023-07-17T03:21:01.131Z,15.30
2023-07-17T03:23:29.484Z,17.30
2023-07-17T03:25:58.493Z,16.20
2023-07-17T03:28:26.687Z,16.50
2023-07-17T03:30:57.593Z,15.90
2023-07-17T03:33:26.635Z,15.40
2023-07-17T03:35:54.880Z,14.00
2023-07-17T03:38:23.180Z,15.60
2023-07-17T03:40:52.532Z,15.70
2023-07-17T03:43:21.215Z,14.90
2023-07-17T03:45:52.808Z,15.00
2023-07-17T03:48:21.208Z,15.80
2023-07-17T03:50:50.296Z,16.10
2023-07-17T03:53:19.208Z,20.00
2023-07-17T03:55:47.498Z,18.70
2023-07-17T03:58:15.649Z,18.20
2023-07-17T04:00:44.217Z,14.60
2023-07-17T04:03:13.058Z,12.80
2023-07-17T04:05:43.157Z,18.40
2023-07-17T04:08:11.711Z,16.20
2023-07-17T04:10:39.797Z,17.20
2023-07-17T04:13:08.069Z,14.70
2023-07-17T04:15:37.521Z,17.90
2023-07-17T04:18:06.184Z,16.80
2023-07-17T04:20:38.021Z,16.40
2023-07-17T04:23:07.014Z,15.40
2023-07-17T04:25:38.815Z,18.60
2023-07-17T04:28:06.934Z,17.50
2023-07-17T04:30:38.701Z,14.90
2023-07-17T04:33:09.824Z,16.60
2023-07-17T04:35:39.783Z,17.30
2023-07-17T04:38:08.481Z,20.30
2023-07-17T04:40:36.734Z,20.90
2023-07-17T04:43:04.969Z,15.90
2023-07-17T04:45:34.606Z,17.30
2023-07-17T04:48:06.347Z,17.60
2023-07-17T04:50:34.724Z,19.50
2023-07-17T04:53:02.839Z,16.30
2023-07-17T04:55:30.984Z,20.80
2023-07-17T04:57:59.354Z,20.20
2023-07-17T05:02:58.221Z,19.20
2023-07-17T05:05:29.499Z,18.10
2023-07-17T05:07:57.910Z,17.50
2023-07-17T05:10:26.079Z,17.00
2023-07-17T05:12:54.740Z,17.30
2023-07-17T05:15:23.515Z,17.70
2023-07-17T05:17:52.674Z,18.20
2023-07-17T05:20:20.785Z,17.90
2023-07-17T05:22:48.964Z,18.60
2023-07-17T05:25:17.343Z,19.20
2023-07-17T05:27:47.222Z,22.20
2023-07-17T05:30:17.039Z,18.70
2023-07-17T05:32:45.184Z,26.00
2023-07-17T05:35:14.469Z,20.10
2023-07-17T05:37:43.378Z,19.40
2023-07-17T05:40:12.286Z,17.60
2023-07-17T05:42:40.550Z,18.50
2023-07-17T05:45:09.879Z,18.20
2023-07-17T05:47:39.436Z,17.60
2023-07-17T05:52:37.332Z,20.10
2023-07-17T05:55:06.116Z,21.40
2023-07-17T05:57:34.458Z,19.60
2023-07-17T06:00:05.033Z,18.00
2023-07-17T06:02:44.335Z,16.10
2023-07-17T06:05:12.865Z,20.10
2023-07-17T06:07:41.274Z,19.30
2023-07-17T06:10:11.585Z,24.80
2023-07-17T06:12:43.639Z,23.50
2023-07-17T06:15:14.809Z,19.30
2023-07-17T06:17:43.063Z,21.40
2023-07-17T06:20:11.843Z,21.00
2023-07-17T06:22:39.995Z,16.60
2023-07-17T06:25:08.747Z,23.90
2023-07-17T06:30:05.823Z,15.90
2023-07-17T06:32:34.577Z,20.30
2023-07-17T06:37:30.897Z,19.60
2023-07-17T06:39:59.308Z,18.00
2023-07-17T06:42:27.711Z,38.10
2023-07-17T06:44:58.246Z,21.40
2023-07-17T06:47:36.456Z,26.40
2023-07-17T06:50:06.877Z,23.40
2023-07-17T06:52:35.436Z,27.30
2023-07-17T06:57:34.427Z,22.90
2023-07-17T07:00:02.546Z,22.30
2023-07-17T07:02:31.021Z,21.70
2023-07-17T07:04:59.346Z,19.40
2023-07-17T07:07:27.506Z,17.40
2023-07-17T07:09:55.706Z,17.40
2023-07-17T07:17:21.540Z,18.40
2023-07-17T07:22:19.502Z,18.10
2023-07-17T07:24:48.046Z,15.20
2023-07-17T07:27:17.392Z,18.20
2023-07-17T07:29:45.582Z,15.00
2023-07-17T07:34:42.061Z,12.30
2023-07-17T07:37:10.661Z,15.60
2023-07-17T07:39:38.868Z,13.70
2023-07-17T07:42:08.136Z,13.20
2023-07-17T07:44:36.370Z,14.20
2023-07-17T07:47:06.513Z,19.10
2023-07-17T07:49:34.779Z,13.30
2023-07-17T07:52:03.070Z,11.90
2023-07-17T07:54:31.405Z,13.30
2023-07-17T07:56:59.869Z,16.40
2023-07-17T07:59:28.012Z,12.40
2023-07-17T08:01:56.156Z,15.10
2023-07-17T08:04:24.691Z,13.50
2023-07-17T08:06:53.326Z,13.40
2023-07-17T08:09:21.487Z,12.90
2023-07-17T08:11:49.934Z,13.20
2023-07-17T08:14:18.459Z,20.60
2023-07-17T08:16:46.998Z,14.30
2023-07-17T08:19:15.102Z,13.30
2023-07-17T08:21:43.833Z,12.20
2023-07-17T08:24:12.193Z,12.20
2023-07-17T08:26:41.624Z,13.30
2023-07-17T08:29:09.844Z,14.00
2023-07-17T08:31:38.663Z,12.90
2023-07-17T08:34:06.901Z,12.60
2023-07-17T08:39:06.262Z,13.10
2023-07-17T08:41:36.600Z,14.30
2023-07-17T08:44:05.284Z,13.00
2023-07-17T08:46:34.406Z,14.30
2023-07-17T08:49:03.759Z,13.60
2023-07-17T08:51:32.188Z,13.30
2023-07-17T08:54:27.128Z,11.20
2023-07-17T08:56:52.573Z,12.70
2023-07-17T08:59:21.728Z,15.40
2023-07-17T09:01:53.093Z,11.10
2023-07-17T09:04:22.303Z,13.30
2023-07-17T09:06:52.060Z,13.20
2023-07-17T09:09:20.468Z,13.20
2023-07-17T09:12:08.252Z,11.30
2023-07-17T09:14:37.952Z,14.40
2023-07-17T09:17:09.247Z,11.50
2023-07-17T09:19:38.558Z,7.90
2023-07-17T09:22:08.551Z,12.00
2023-07-17T09:24:38.055Z,12.50
2023-07-17T09:27:08.119Z,12.60
2023-07-17T09:29:43.122Z,12.30
2023-07-17T09:32:17.028Z,12.20
2023-07-17T09:34:45.458Z,10.30
2023-07-17T09:37:13.554Z,11.70
2023-07-17T09:39:42.073Z,12.70
2023-07-17T09:42:24.366Z,12.70
2023-07-17T09:44:53.777Z,14.10
2023-07-17T09:47:22.964Z,9.90
2023-07-17T09:49:55.767Z,12.70
2023-07-17T09:52:25.164Z,15.10
2023-07-17T09:54:53.425Z,13.60
2023-07-17T09:57:29.191Z,15.40
2023-07-17T10:00:06.156Z,15.40
2023-07-17T10:02:39.603Z,18.50
2023-07-17T10:05:08.165Z,16.70
2023-07-17T10:07:44.095Z,14.40
2023-07-17T10:10:12.264Z,20.20
2023-07-17T10:12:42.828Z,22.50
2023-07-17T10:15:12.647Z,23.40
2023-07-17T10:17:42.005Z,16.60
2023-07-17T10:20:13.839Z,20.30
2023-07-17T10:22:46.884Z,19.20
2023-07-17T10:25:20.830Z,18.20
2023-07-17T10:28:02.345Z,16.80
2023-07-17T10:30:37.826Z,15.30
2023-07-17T10:33:07.366Z,17.00
2023-07-17T10:35:52.669Z,15.50
2023-07-17T10:38:29.276Z,14.50
2023-07-17T10:41:14.001Z,15.00
2023-07-17T10:44:17.166Z,14.20
2023-07-17T10:46:47.177Z,13.50
2023-07-17T10:49:17.843Z,10.60
2023-07-17T10:51:47.201Z,11.60
2023-07-17T10:54:19.518Z,11.00
2023-07-17T10:56:49.629Z,13.80
2023-07-17T10:59:19.126Z,14.90
2023-07-17T11:01:47.774Z,13.60
2023-07-17T11:04:18.956Z,21.90
2023-07-17T11:06:47.204Z,13.20
2023-07-17T11:09:17.630Z,11.70
2023-07-17T11:11:47.192Z,15.70
2023-07-17T11:14:19.060Z,14.00
2023-07-17T11:16:47.205Z,14.60
2023-07-17T11:19:16.648Z,15.30
2023-07-17T11:21:49.269Z,17.30
2023-07-17T11:24:17.471Z,12.20
2023-07-17T11:29:14.071Z,13.00
2023-07-17T11:31:42.492Z,13.20
2023-07-17T11:34:12.234Z,15.10
2023-07-17T11:36:44.181Z,14.70
2023-07-17T11:39:14.901Z,15.00
2023-07-17T11:41:50.739Z,15.20
2023-07-17T11:44:26.121Z,14.70
2023-07-17T11:47:01.022Z,14.80
2023-07-17T11:49:29.976Z,14.90
2023-07-17T11:51:58.584Z,15.20
2023-07-17T11:54:30.541Z,14.80
2023-07-17T11:57:04.231Z,15.30
2023-07-17T11:59:33.240Z,14.00
2023-07-17T12:02:01.872Z,13.60
2023-07-17T12:04:36.123Z,14.20
2023-07-17T12:07:05.953Z,14.50
2023-07-17T12:09:34.679Z,12.80
2023-07-17T12:12:02.771Z,14.70
2023-07-17T12:14:30.822Z,12.70
2023-07-17T12:17:00.221Z,15.20
2023-07-17T12:19:28.350Z,16.80
2023-07-17T12:24:25.256Z,13.60
2023-07-17T12:26:53.486Z,17.20
2023-07-17T12:31:50.116Z,16.10
2023-07-17T12:34:18.434Z,16.10
2023-07-17T12:36:46.798Z,18.70
2023-07-17T12:41:45.477Z,17.80
2023-07-17T12:44:13.656Z,14.90
2023-07-17T12:46:41.830Z,13.70
2023-07-17T12:54:06.935Z,18.40
2023-07-17T12:56:35.090Z,18.80
2023-07-17T12:59:03.247Z,19.30
2023-07-17T13:04:00.161Z,17.10
2023-07-17T13:06:28.525Z,17.30
2023-07-17T13:08:56.958Z,19.40
2023-07-17T13:16:21.601Z,18.30
2023-07-17T13:18:50.464Z,22.50
2023-07-17T13:21:18.991Z,19.10
2023-07-17T13:23:47.420Z,19.30
2023-07-17T13:31:12.467Z,21.70
2023-07-17T13:33:40.732Z,21.00
2023-07-17T13:36:08.851Z,19.50
2023-07-17T13:38:37.090Z,17.90
2023-07-17T13:41:21.049Z,20.20
2023-07-17T13:43:49.552Z,20.60
2023-07-17T13:48:46.360Z,20.60
2023-07-17T13:59:03.619Z,19.70
2023-07-17T14:01:32.523Z,18.50
2023-07-17T14:04:02.919Z,19.50
2023-07-17T14:06:32.796Z,19.30
2023-07-17T14:09:01.229Z,16.60
2023-07-17T14:11:31.358Z,17.10
2023-07-17T14:14:02.016Z,18.70
2023-07-17T14:16:31.096Z,21.10
2023-07-17T14:19:01.169Z,22.20
2023-07-17T14:21:29.503Z,31.00
2023-07-17T14:23:58.047Z,21.60
2023-07-17T14:26:26.214Z,17.30
2023-07-17T14:33:50.666Z,19.90
2023-07-17T14:38:47.634Z,19.30
2023-07-17T14:41:15.786Z,18.50
2023-07-17T14:46:12.128Z,22.80
2023-07-17T14:48:40.293Z,23.10
2023-07-17T14:51:08.540Z,22.40
2023-07-17T14:53:36.716Z,19.90
2023-07-17T14:56:05.594Z,22.30
2023-07-17T14:58:33.798Z,21.50
2023-07-17T15:01:02.757Z,23.70
2023-07-17T15:03:31.049Z,20.60
2023-07-17T15:05:59.310Z,18.80
2023-07-17T15:08:27.446Z,19.50
2023-07-17T15:10:56.104Z,18.40
2023-07-17T15:13:26.205Z,20.30
2023-07-17T15:15:56.219Z,20.40
2023-07-17T15:18:24.392Z,22.90
2023-07-17T15:28:17.289Z,22.20
2023-07-17T15:30:45.471Z,20.40
2023-07-17T15:33:13.886Z,20.40
2023-07-17T15:43:06.761Z,23.90
2023-07-17T15:45:35.105Z,24.90
2023-07-17T15:50:31.698Z,23.60
2023-07-17T15:57:56.196Z,23.20
2023-07-17T16:00:24.595Z,22.60
2023-07-17T16:05:21.699Z,20.80
2023-07-17T16:07:50.090Z,21.20
2023-07-17T16:10:18.459Z,23.60
2023-07-17T16:15:14.767Z,22.00
2023-07-17T16:17:42.843Z,21.80
2023-07-17T16:22:39.922Z,20.60
2023-07-17T16:30:05.332Z,21.50
2023-07-17T16:32:33.614Z,20.60
2023-07-17T16:35:01.938Z,22.70
2023-07-17T16:37:30.169Z,22.70
2023-07-17T16:39:58.241Z,20.30
2023-07-17T16:42:26.422Z,19.90
2023-07-17T16:44:54.597Z,20.10
2023-07-17T16:47:22.852Z,22.40
2023-07-17T16:49:51.101Z,20.30
2023-07-17T16:52:19.145Z,21.90
2023-07-17T16:59:43.909Z,19.90
2023-07-17T17:02:12.201Z,22.00
2023-07-17T17:04:40.698Z,23.90
2023-07-17T17:09:37.054Z,20.20
2023-07-17T17:12:05.875Z,22.50
2023-07-17T17:14:34.517Z,23.60
2023-07-17T17:17:02.655Z,22.30
2023-07-17T17:19:30.769Z,22.40
2023-07-17T17:21:58.824Z,23.60
2023-07-17T17:24:27.116Z,23.90
2023-07-17T17:26:55.148Z,23.40
2023-07-17T17:29:23.541Z,23.10
2023-07-17T17:31:52.033Z,24.80
2023-07-17T17:34:20.333Z,24.40
2023-07-17T17:36:48.424Z,26.00
2023-07-17T17:39:16.626Z,21.80
2023-07-17T17:41:45.037Z,22.00
2023-07-17T17:44:13.940Z,23.90
2023-07-17T17:46:42.079Z,24.40
2023-07-17T17:49:11.235Z,26.00
2023-07-17T17:51:39.690Z,24.70
2023-07-17T17:59:04.521Z,24.00
2023-07-17T18:01:32.572Z,25.30
2023-07-17T18:04:02.614Z,24.60
2023-07-17T18:06:31.154Z,24.70
2023-07-17T18:08:59.338Z,27.20
2023-07-17T18:11:27.547Z,25.40
2023-07-17T18:13:59.898Z,28.70
2023-07-17T18:16:27.985Z,25.60
2023-07-17T18:18:57.593Z,27.60
2023-07-17T18:21:25.883Z,27.80
2023-07-17T18:23:54.070Z,25.40
2023-07-17T18:26:22.178Z,26.30
2023-07-17T18:28:50.414Z,27.10
2023-07-17T18:31:18.721Z,29.70
2023-07-17T18:33:47.353Z,25.50
2023-07-17T18:36:16.666Z,27.10
2023-07-17T18:38:44.944Z,29.00
2023-07-17T18:41:13.171Z,31.10
2023-07-17T18:43:41.323Z,27.80
2023-07-17T18:46:09.463Z,29.70
2023-07-17T18:48:37.943Z,33.40
2023-07-17T18:51:06.269Z,31.00
2023-07-17T18:53:34.315Z,32.90
2023-07-17T18:56:02.774Z,30.90
2023-07-17T18:58:30.921Z,30.70
2023-07-17T19:00:59.234Z,33.90
2023-07-17T19:03:27.358Z,32.50
2023-07-17T19:05:57.164Z,31.60
2023-07-17T19:08:27.190Z,32.10
2023-07-17T19:10:55.294Z,35.20
2023-07-17T19:13:23.439Z,32.00
2023-07-17T19:15:52.177Z,41.30
2023-07-17T19:18:20.483Z,32.90
2023-07-17T19:20:48.753Z,33.50
2023-07-17T19:23:17.053Z,36.20
2023-07-17T19:25:45.304Z,32.20
2023-07-17T19:28:13.373Z,29.00
2023-07-17T19:30:41.667Z,27.20
2023-07-17T19:33:09.901Z,33.60
2023-07-17T19:35:38.123Z,31.20
2023-07-17T19:38:06.583Z,35.30
2023-07-17T19:40:34.833Z,29.60
2023-07-17T19:43:02.862Z,34.60
2023-07-17T19:45:30.944Z,32.00
2023-07-17T19:50:28.322Z,38.70
2023-07-17T19:52:56.611Z,38.10
2023-07-17T19:55:24.800Z,33.90
2023-07-17T19:57:53.228Z,38.20
2023-07-17T20:00:21.364Z,38.20
2023-07-17T20:02:49.668Z,32.10
2023-07-17T20:05:17.963Z,37.90
2023-07-17T20:07:46.074Z,40.20
2023-07-17T20:10:15.185Z,32.70
2023-07-17T20:12:43.299Z,28.00
2023-07-17T20:15:11.392Z,26.30
2023-07-17T20:17:40.035Z,26.40
2023-07-17T20:20:11.813Z,27.40
2023-07-17T20:22:41.340Z,24.80
2023-07-17T20:25:11.070Z,26.40
2023-07-17T20:27:43.265Z,26.30
2023-07-17T20:30:13.801Z,24.00
2023-07-17T20:32:42.372Z,23.30
2023-07-17T20:37:57.212Z,23.30
2023-07-17T20:40:25.996Z,26.40
2023-07-17T20:42:55.428Z,49.50
2023-07-17T20:45:34.192Z,45.10
2023-07-17T20:48:02.727Z,79.90
2023-07-17T20:50:30.976Z,38.90
2023-07-17T20:52:59.299Z,30.80
2023-07-17T20:55:27.463Z,26.90
2023-07-17T20:57:55.853Z,32.80
2023-07-17T21:00:24.051Z,31.00
2023-07-17T21:02:52.270Z,32.50
2023-07-17T21:05:25.631Z,24.40
2023-07-17T21:07:53.679Z,26.30
2023-07-17T21:10:21.809Z,29.70
2023-07-17T21:12:52.193Z,31.70
2023-07-17T21:15:20.389Z,31.50
2023-07-17T21:17:48.664Z,32.20
2023-07-17T21:20:16.827Z,30.30
2023-07-17T21:22:44.932Z,30.30
2023-07-17T21:25:13.400Z,29.10
2023-07-17T21:27:41.508Z,38.70
2023-07-17T21:30:10.581Z,33.50
2023-07-17T21:35:07.774Z,25.60
2023-07-17T21:40:04.604Z,23.60
2023-07-17T21:42:33.164Z,22.50
2023-07-17T21:45:02.264Z,27.00
2023-07-17T21:47:30.427Z,24.50
2023-07-17T21:49:58.752Z,21.80
2023-07-17T21:52:27.435Z,21.40
2023-07-17T21:54:55.798Z,21.50
2023-07-17T21:57:24.307Z,19.30
2023-07-17T21:59:54.275Z,20.10
2023-07-17T22:02:22.868Z,16.80
2023-07-17T22:04:51.090Z,17.90
2023-07-17T22:07:19.161Z,21.80
2023-07-17T22:09:51.382Z,19.70
2023-07-17T22:12:20.447Z,17.90
2023-07-17T22:14:52.570Z,18.60
2023-07-17T22:17:22.541Z,21.70
2023-07-17T22:19:52.750Z,21.50
2023-07-17T22:22:21.370Z,21.90
2023-07-17T22:24:51.310Z,22.70
2023-07-17T22:27:19.733Z,22.50
2023-07-17T22:29:48.302Z,25.00
2023-07-17T22:32:17.161Z,22.90
2023-07-17T22:37:19.195Z,22.80
2023-07-17T22:39:48.025Z,22.90
2023-07-17T22:44:47.443Z,22.00
2023-07-17T22:47:15.625Z,26.60
2023-07-17T22:49:43.660Z,27.10
2023-07-17T22:52:11.755Z,25.60
2023-07-17T22:54:40.288Z,23.40
2023-07-17T22:57:08.447Z,22.80
2023-07-17T22:59:37.326Z,22.40
2023-07-17T23:02:06.756Z,22.70
2023-07-17T23:04:35.100Z,22.00
2023-07-17T23:07:03.687Z,22.60
2023-07-17T23:09:33.603Z,23.80
2023-07-17T23:12:01.855Z,23.40
2023-07-17T23:14:33.672Z,25.10
2023-07-17T23:17:05.108Z,26.80
2023-07-17T23:19:33.207Z,27.50
2023-07-17T23:22:01.289Z,25.80
2023-07-17T23:24:29.413Z,25.10
2023-07-17T23:26:57.429Z,24.60
2023-07-17T23:29:25.882Z,28.80
2023-07-17T23:31:53.970Z,28.30
2023-07-17T23:34:22.379Z,27.80
2023-07-17T23:36:50.597Z,29.10
2023-07-17T23:39:22.283Z,26.00
2023-07-17T23:41:51.063Z,29.20
2023-07-17T23:46:47.172Z,30.20
2023-07-17T23:49:15.299Z,30.10
2023-07-17T23:51:44.694Z,27.70
2023-07-17T23:54:13.818Z,29.10
2023-07-17T23:56:42.993Z,32.70
2023-07-17T23:59:11.411Z,31.80
